Time;durP1;ratioP1;P1;durP2;ratioP2;P2;SDS_P1;SDS_P2;PMS_P1;PMS_P2;Temp;Humidity;BMP_temperature;BMP_pressure;BME280_temperature;BME280_humidity;BME280_pressure;Samples;Min_cycle;Max_cycle;Signal;HPM_P1;HPM_P2
2022/10/30 00:00:25;;;;;;;28.57;11.07;;;13.40;16.60;;;;;;5040110;28;20394;-81
2022/10/30 00:02:53;;;;;;;39.13;11.20;;;13.40;15.60;;;;;;5049976;28;20845;-81
2022/10/30 00:05:19;;;;;;;25.33;10.63;;;13.30;16.30;;;;;;5051861;28;20454;-81
2022/10/30 00:07:46;;;;;;;22.87;9.53;;;13.30;15.80;;;;;;5059374;28;20505;-80
2022/10/30 00:10:29;;;;;;;30.97;10.67;;;13.30;15.30;;;;;;5052755;28;20417;-81
2022/10/30 00:13:06;;;;;;;19.43;9.27;;;13.30;14.40;;;;;;5055587;28;20457;-81
2022/10/30 00:16:06;;;;;;;25.00;10.17;;;13.20;11.80;;;;;;5039368;28;20439;-81
2022/10/30 00:18:47;;;;;;;19.20;9.90;;;13.20;12.40;;;;;;5048483;28;20410;-81
2022/10/30 00:21:23;;;;;;;20.53;9.87;;;13.10;13.50;;;;;;5057106;28;20421;-81
2022/10/30 00:24:06;;;;;;;31.13;10.60;;;13.00;14.00;;;;;;5050235;28;20557;-81
2022/10/30 00:26:35;;;;;;;18.20;9.10;;;13.00;14.40;;;;;;5039446;28;20835;-81
2022/10/30 00:29:11;;;;;;;24.60;10.93;;;12.90;15.80;;;;;;5049933;28;20559;-81
2022/10/30 00:32:05;;;;;;;26.53;11.30;;;12.90;15.10;;;;;;5046019;28;20497;-80
2022/10/30 00:34:30;;;;;;;28.40;10.07;;;12.90;16.00;;;;;;5041977;28;20446;-81
2022/10/30 00:36:59;;;;;;;23.20;10.27;;;13.00;15.50;;;;;;5055810;28;20504;-80
2022/10/30 00:39:25;;;;;;;27.77;10.60;;;12.80;15.00;;;;;;5036889;28;20675;-81
2022/10/30 00:42:35;;;;;;;26.83;10.30;;;12.90;15.60;;;;;;5037431;28;20431;-80
2022/10/30 00:49:04;;;;;;;36.03;11.30;;;12.70;17.60;;;;;;5053164;28;20417;-81
2022/10/30 00:51:49;;;;;;;28.70;11.03;;;12.60;17.80;;;;;;5050547;28;20453;-81
2022/10/30 00:54:18;;;;;;;25.33;9.70;;;12.60;19.40;;;;;;5045289;28;20426;-85
2022/10/30 00:56:55;;;;;;;24.50;11.00;;;12.60;20.60;;;;;;5051511;28;20450;-85
2022/10/30 01:00:16;;;;;;;27.33;11.60;;;12.60;21.10;;;;;;5049183;28;20444;-85
2022/10/30 01:03:11;;;;;;;24.47;11.77;;;12.60;21.60;;;;;;5048458;28;20425;-85
2022/10/30 01:06:02;;;;;;;30.50;11.07;;;12.60;22.80;;;;;;5043248;28;20504;-85
2022/10/30 01:09:10;;;;;;;28.33;11.50;;;12.50;23.10;;;;;;5036322;28;20419;-85
2022/10/30 01:11:56;;;;;;;24.53;10.87;;;12.60;23.60;;;;;;5049846;28;20461;-81
2022/10/30 01:14:39;;;;;;;23.93;11.30;;;12.50;24.50;;;;;;5051083;28;20430;-81
2022/10/30 01:17:35;;;;;;;23.07;10.37;;;12.50;25.00;;;;;;5046925;28;20437;-81
2022/10/30 01:20:37;;;;;;;25.77;10.63;;;12.50;26.80;;;;;;5044686;28;20501;-81
2022/10/30 01:23:21;;;;;;;35.30;10.60;;;12.50;26.90;;;;;;5040530;28;20432;-81
2022/10/30 01:26:05;;;;;;;23.97;11.40;;;12.50;27.60;;;;;;5053131;28;20441;-81
2022/10/30 01:29:06;;;;;;;29.83;10.53;;;12.50;26.30;;;;;;5053621;28;20429;-81
2022/10/30 01:32:13;;;;;;;28.43;9.87;;;12.50;27.60;;;;;;5044463;28;20457;-81
2022/10/30 01:35:02;;;;;;;24.27;10.43;;;12.40;28.00;;;;;;4974022;28;20433;-81
2022/10/30 01:37:55;;;;;;;20.67;9.73;;;12.40;28.50;;;;;;4972623;28;20437;-81
2022/10/30 01:40:35;;;;;;;27.20;10.10;;;12.40;27.60;;;;;;4974638;28;20528;-85
2022/10/30 01:43:05;;;;;;;29.73;10.67;;;12.40;27.30;;;;;;4974645;28;20468;-85
2022/10/30 01:45:56;;;;;;;29.73;11.57;;;12.50;25.20;;;;;;4974942;28;21004;-85
2022/10/30 01:48:58;;;;;;;26.23;10.73;;;12.40;25.70;;;;;;4956447;28;20446;-85
2022/10/30 01:52:11;;;;;;;23.80;10.30;;;12.40;23.60;;;;;;4974643;28;20465;-85
2022/10/30 01:55:02;;;;;;;21.70;10.10;;;12.30;26.90;;;;;;4970059;28;20437;-82
2022/10/30 01:57:59;;;;;;;29.33;11.10;;;12.30;27.70;;;;;;4973758;28;20540;-82
2022/10/30 02:00:44;;;;;;;24.60;10.53;;;12.30;29.70;;;;;;4957404;28;20429;-81
2022/10/30 02:03:12;;;;;;;27.00;10.57;;;12.30;27.80;;;;;;4972806;28;20491;-81
2022/10/30 02:05:59;;;;;;;29.60;10.80;;;12.20;27.50;;;;;;4953879;28;20504;-81
2022/10/30 02:08:35;;;;;;;32.63;10.20;;;12.20;27.60;;;;;;4971283;28;20516;-81
2022/10/30 02:11:24;;;;;;;30.03;9.50;;;12.20;27.30;;;;;;5019416;28;20469;-85
2022/10/30 02:14:29;;;;;;;21.50;9.80;;;12.20;26.40;;;;;;5054836;28;20426;-85
2022/10/30 02:16:57;;;;;;;21.60;10.00;;;12.20;25.80;;;;;;5053818;28;20391;-85
2022/10/30 02:22:46;;;;;;;21.27;9.20;;;12.10;26.30;;;;;;5035992;28;20422;-85
2022/10/30 02:25:47;;;;;;;28.43;10.27;;;12.10;27.60;;;;;;5043847;28;20441;-81
2022/10/30 02:28:29;;;;;;;28.23;10.40;;;12.10;28.60;;;;;;5034176;28;20407;-81
2022/10/30 02:30:59;;;;;;;27.23;10.40;;;12.10;27.80;;;;;;5047559;28;20972;-81
2022/10/30 02:33:29;;;;;;;21.30;10.13;;;12.10;28.60;;;;;;5049168;28;20438;-81
2022/10/30 02:36:05;;;;;;;25.97;11.00;;;12.10;30.90;;;;;;5045887;28;20920;-81
2022/10/30 02:38:54;;;;;;;21.77;9.67;;;12.00;31.50;;;;;;5050451;28;20491;-81
2022/10/30 02:41:23;;;;;;;20.97;10.67;;;12.00;37.20;;;;;;5054641;28;20425;-85
2022/10/30 02:44:23;;;;;;;26.10;9.93;;;12.10;43.70;;;;;;5052726;28;20426;-85
2022/10/30 02:47:23;;;;;;;23.73;9.60;;;12.10;43.90;;;;;;5054222;28;20505;-85
2022/10/30 02:49:59;;;;;;;28.77;10.20;;;12.20;41.90;;;;;;5045070;28;20434;-84
2022/10/30 02:52:41;;;;;;;23.40;9.97;;;12.20;38.30;;;;;;5038603;28;20465;-85
2022/10/30 02:58:55;;;;;;;27.43;10.50;;;12.30;40.00;;;;;;5053619;28;20445;-85
2022/10/30 03:01:53;;;;;;;24.47;10.10;;;12.40;37.10;;;;;;5046007;28;20441;-85
2022/10/30 03:04:19;;;;;;;20.13;10.70;;;12.40;35.80;;;;;;5046221;28;20414;-85
2022/10/30 03:07:17;;;;;;;28.93;9.73;;;12.50;38.60;;;;;;5046664;28;20446;-85
2022/10/30 03:10:22;;;;;;;20.10;10.10;;;12.50;33.60;;;;;;5045325;28;20468;-85
2022/10/30 03:12:53;;;;;;;23.63;10.00;;;12.50;31.00;;;;;;5050419;28;20476;-82
2022/10/30 03:15:19;;;;;;;33.13;10.60;;;12.50;32.60;;;;;;5050605;28;20462;-81
2022/10/30 03:17:45;;;;;;;25.03;9.93;;;12.50;30.30;;;;;;5053461;28;20418;-81
2022/10/30 03:20:23;;;;;;;29.93;10.40;;;12.60;28.40;;;;;;5042235;28;20944;-81
2022/10/30 03:23:00;;;;;;;29.20;11.03;;;12.70;26.80;;;;;;5046814;28;20695;-81
2022/10/30 03:25:41;;;;;;;39.97;11.17;;;12.60;27.20;;;;;;5048952;28;20425;-82
2022/10/30 03:28:11;;;;;;;19.80;9.80;;;12.60;26.70;;;;;;5045855;28;20925;-81
2022/10/30 03:30:41;;;;;;;25.83;9.77;;;12.60;27.60;;;;;;5038599;28;20477;-81
2022/10/30 03:33:35;;;;;;;31.47;10.70;;;12.60;29.50;;;;;;5049558;28;20543;-81
2022/10/30 03:36:47;;;;;;;26.30;10.17;;;12.60;30.30;;;;;;5040396;28;20450;-81
2022/10/30 03:39:35;;;;;;;27.47;10.30;;;12.60;30.40;;;;;;5040519;28;20925;-80
2022/10/30 03:42:05;;;;;;;27.17;9.53;;;12.60;28.20;;;;;;5047479;28;20434;-81
2022/10/30 03:44:35;;;;;;;25.43;10.50;;;12.60;28.10;;;;;;5053051;28;20418;-81
2022/10/30 03:47:05;;;;;;;27.40;11.33;;;12.60;28.70;;;;;;5044717;28;20789;-81
2022/10/30 03:49:35;;;;;;;23.53;9.40;;;12.50;30.00;;;;;;5051327;28;20944;-81
2022/10/30 03:52:11;;;;;;;21.90;10.20;;;12.50;28.30;;;;;;5049577;28;20946;-81
2022/10/30 03:54:37;;;;;;;27.13;10.07;;;12.50;29.50;;;;;;5046315;28;20410;-81
2022/10/30 03:57:23;;;;;;;17.97;10.10;;;12.40;28.50;;;;;;5040023;28;20422;-85
2022/10/30 04:00:23;;;;;;;22.70;11.20;;;12.40;29.10;;;;;;5043263;28;20187;-85
2022/10/30 04:03:23;;;;;;;30.93;9.70;;;12.40;28.10;;;;;;5043621;28;20446;-85
2022/10/30 04:06:11;;;;;;;23.50;9.83;;;12.40;27.50;;;;;;5047177;28;20453;-85
2022/10/30 04:09:23;;;;;;;21.40;10.00;;;12.40;28.40;;;;;;5036657;28;20426;-85
2022/10/30 04:11:53;;;;;;;25.37;11.10;;;12.30;29.90;;;;;;5049271;28;20500;-82
2022/10/30 04:14:29;;;;;;;30.40;10.53;;;12.30;33.20;;;;;;5041800;28;20422;-81
2022/10/30 04:17:05;;;;;;;19.23;10.10;;;12.30;35.60;;;;;;5042909;28;20788;-81
2022/10/30 04:19:31;;;;;;;22.23;10.37;;;12.20;44.00;;;;;;5046874;28;20461;-81
2022/10/30 04:22:05;;;;;;;22.33;10.50;;;12.20;44.00;;;;;;5045407;28;20430;-81
2022/10/30 04:24:31;;;;;;;40.63;10.80;;;12.30;44.00;;;;;;5056219;28;20182;-81
2022/10/30 04:26:59;;;;;;;31.57;10.37;;;12.20;44.00;;;;;;5051894;28;20496;-82
2022/10/30 04:29:29;;;;;;;31.47;11.20;;;12.20;43.90;;;;;;5045735;28;20626;-81
2022/10/30 04:31:55;;;;;;;19.83;10.33;;;12.20;43.90;;;;;;5054552;28;20465;-81
2022/10/30 04:34:23;;;;;;;26.27;9.50;;;12.20;43.90;;;;;;5055122;28;20509;-81
2022/10/30 04:36:54;;;;;;;18.27;9.83;;;12.20;43.80;;;;;;5056191;28;20183;-81
2022/10/30 04:39:23;;;;;;;25.80;9.97;;;12.20;43.90;;;;;;5042689;28;20463;-81
2022/10/30 04:42:23;;;;;;;27.17;10.63;;;12.20;44.00;;;;;;5052936;28;20433;-85
2022/10/30 04:44:53;;;;;;;23.20;8.90;;;12.20;43.80;;;;;;5053989;28;20425;-86
2022/10/30 04:47:19;;;;;;;29.37;9.87;;;12.10;43.70;;;;;;5055986;28;20424;-85
2022/10/30 04:49:53;;;;;;;17.90;9.33;;;12.10;43.80;;;;;;5048834;28;20451;-85
2022/10/30 04:52:57;;;;;;;22.30;9.80;;;12.10;43.70;;;;;;5035354;28;20230;-86
2022/10/30 04:55:53;;;;;;;21.43;9.73;;;12.10;43.70;;;;;;5046715;28;20418;-87
2022/10/30 04:58:53;;;;;;;18.90;10.10;;;12.10;43.80;;;;;;5048245;28;20484;-86
2022/10/30 05:01:23;;;;;;;23.10;10.43;;;12.10;43.90;;;;;;5058460;28;20521;-85
2022/10/30 05:04:05;;;;;;;37.23;10.30;;;12.10;43.80;;;;;;5049502;28;20966;-85
2022/10/30 05:07:23;;;;;;;19.50;10.83;;;12.10;43.80;;;;;;5049669;28;20545;-86
2022/10/30 05:13:53;;;;;;;27.67;11.00;;;12.10;43.70;;;;;;5054436;28;20519;-81
2022/10/30 05:16:23;;;;;;;24.33;10.60;;;12.10;43.70;;;;;;5050169;28;20436;-81
2022/10/30 05:18:49;;;;;;;26.53;10.70;;;12.00;43.60;;;;;;5055422;28;20441;-81
2022/10/30 05:21:14;;;;;;;22.33;10.77;;;12.00;43.70;;;;;;5053442;28;20422;-81
2022/10/30 05:23:47;;;;;;;20.77;11.07;;;12.10;45.30;;;;;;5051698;28;20177;-81
2022/10/30 05:26:23;;;;;;;24.93;11.10;;;12.00;43.60;;;;;;5044874;28;20194;-84
2022/10/30 05:32:53;;;;;;;23.53;9.97;;;12.00;43.30;;;;;;5043302;28;20511;-86
2022/10/30 05:38:53;;;;;;;26.13;10.47;;;11.80;43.40;;;;;;5049841;28;20464;-86
2022/10/30 05:41:26;;;;;;;25.43;10.63;;;11.80;43.50;;;;;;5039051;28;20423;-80
2022/10/30 05:43:53;;;;;;;28.23;10.10;;;11.80;43.50;;;;;;5036394;28;20861;-80
2022/10/30 05:46:23;;;;;;;25.87;10.87;;;11.80;43.40;;;;;;5051447;28;20963;-82
2022/10/30 05:48:53;;;;;;;31.00;11.00;;;11.80;43.40;;;;;;5054548;28;20490;-81
2022/10/30 05:51:23;;;;;;;22.60;10.67;;;11.80;43.50;;;;;;5041935;28;21018;-84
2022/10/30 05:53:53;;;;;;;40.33;11.43;;;11.70;43.40;;;;;;5054696;28;20395;-84
2022/10/30 05:56:23;;;;;;;29.17;12.40;;;11.80;43.70;;;;;;5037666;28;21009;-84
2022/10/30 05:59:23;;;;;;;34.37;11.53;;;11.80;43.40;;;;;;5035293;28;20465;-84
2022/10/30 06:01:54;;;;;;;26.50;12.00;;;11.80;43.50;;;;;;5049664;28;20484;-84
2022/10/30 06:04:20;;;;;;;30.03;10.73;;;11.70;43.40;;;;;;5047623;28;20774;-84
2022/10/30 06:06:53;;;;;;;27.23;11.10;;;11.80;43.40;;;;;;5050990;28;20421;-84
2022/10/30 06:09:53;;;;;;;29.83;12.30;;;11.70;43.40;;;;;;5056247;28;20203;-83
2022/10/30 06:12:23;;;;;;;30.10;11.47;;;11.70;43.40;;;;;;5043927;28;20974;-84
2022/10/30 06:15:23;;;;;;;23.93;10.63;;;11.70;43.40;;;;;;5054589;28;20477;-84
2022/10/30 06:18:35;;;;;;;26.33;11.70;;;11.70;43.40;;;;;;5047959;28;20431;-84
2022/10/30 06:21:11;;;;;;;25.63;11.33;;;11.70;43.40;;;;;;5050180;28;20434;-84
2022/10/30 06:23:48;;;;;;;25.17;12.23;;;11.70;38.80;;;;;;5043374;28;20408;-84
2022/10/30 06:26:24;;;;;;;20.20;11.53;;;11.60;39.40;;;;;;5045801;28;20475;-83
2022/10/30 06:28:49;;;;;;;27.77;11.60;;;11.60;38.00;;;;;;5048397;28;20527;-78
2022/10/30 06:31:23;;;;;;;24.63;10.50;;;11.60;37.00;;;;;;5049206;28;20541;-78
2022/10/30 06:33:49;;;;;;;19.93;10.90;;;11.50;43.20;;;;;;5050077;28;20180;-78
2022/10/30 06:36:17;;;;;;;27.53;10.73;;;11.50;43.20;;;;;;5044449;28;20410;-77
2022/10/30 06:38:59;;;;;;;24.10;10.83;;;11.50;43.20;;;;;;5044525;28;20419;-77
2022/10/30 06:41:25;;;;;;;30.00;11.43;;;11.50;39.30;;;;;;5051692;28;20434;-77
2022/10/30 06:44:11;;;;;;;29.37;13.13;;;11.40;41.30;;;;;;5036249;28;20438;-77
2022/10/30 06:46:47;;;;;;;23.40;10.70;;;11.50;39.00;;;;;;5049148;28;20185;-77
2022/10/30 06:49:17;;;;;;;31.83;12.17;;;11.50;34.70;;;;;;5048834;28;20964;-77
2022/10/30 06:51:53;;;;;;;27.63;12.90;;;11.50;40.60;;;;;;5049131;28;20956;-77
2022/10/30 06:54:23;;;;;;;29.83;12.40;;;11.50;35.80;;;;;;5053434;28;20414;-77
2022/10/30 06:56:53;;;;;;;21.63;11.43;;;11.40;43.00;;;;;;5053076;28;20951;-77
2022/10/30 06:59:19;;;;;;;31.20;10.83;;;11.50;41.90;;;;;;5053797;28;20416;-78
2022/10/30 07:01:47;;;;;;;26.07;11.20;;;11.50;38.20;;;;;;5051818;28;20518;-77
2022/10/30 07:04:20;;;;;;;21.80;11.80;;;11.50;43.40;;;;;;5041627;28;20172;-77
2022/10/30 07:06:46;;;;;;;39.57;11.37;;;11.50;41.50;;;;;;5050991;28;20437;-77
2022/10/30 07:09:17;;;;;;;21.90;10.00;;;11.50;43.20;;;;;;5043606;28;20424;-77
2022/10/30 07:12:11;;;;;;;35.23;11.40;;;11.60;47.50;;;;;;5049020;28;20200;-78
2022/10/30 07:15:11;;;;;;;29.63;11.20;;;11.60;43.50;;;;;;5047248;28;20433;-86
2022/10/30 07:17:54;;;;;;;28.40;12.20;;;11.70;43.60;;;;;;5051957;28;20418;-83
2022/10/30 07:20:25;;;;;;;27.03;12.27;;;11.70;43.40;;;;;;5052129;28;20433;-82
2022/10/30 07:22:53;;;;;;;24.53;11.00;;;11.70;43.40;;;;;;5045429;28;20415;-84
2022/10/30 07:25:23;;;;;;;25.87;11.07;;;11.80;43.40;;;;;;5040731;28;20491;-81
2022/10/30 07:27:54;;;;;;;21.30;10.67;;;11.90;43.60;;;;;;5050482;28;20428;-78
2022/10/30 07:30:23;;;;;;;22.10;10.40;;;12.00;43.70;;;;;;5038686;28;20997;-77
2022/10/30 07:33:23;;;;;;;27.67;10.40;;;12.00;43.70;;;;;;5033942;28;20442;-78
2022/10/30 07:35:49;;;;;;;26.93;10.00;;;12.10;43.80;;;;;;5056673;28;20429;-78
2022/10/30 07:38:23;;;;;;;18.27;10.20;;;12.30;44.00;;;;;;5054345;28;20426;-77
2022/10/30 07:40:52;;;;;;;27.30;10.67;;;12.40;44.20;;;;;;5038664;28;20635;-77
2022/10/30 07:43:23;;;;;;;28.03;10.93;;;12.50;44.10;;;;;;5052506;28;20776;-80
2022/10/30 07:45:54;;;;;;;20.07;10.70;;;12.60;44.20;;;;;;5041731;28;20817;-82
2022/10/30 07:48:41;;;;;;;18.03;9.77;;;12.70;44.30;;;;;;5043212;28;20429;-82
2022/10/30 07:51:18;;;;;;;20.87;10.83;;;12.90;44.40;;;;;;5037045;28;20414;-82
2022/10/30 07:53:53;;;;;;;23.50;10.33;;;13.00;41.20;;;;;;5036879;28;20421;-81
2022/10/30 07:56:29;;;;;;;22.97;10.73;;;13.20;36.40;;;;;;5055348;28;20406;-80
2022/10/30 07:58:59;;;;;;;20.00;9.77;;;13.30;27.70;;;;;;5056764;28;20410;-78
2022/10/30 08:01:29;;;;;;;20.67;10.03;;;13.50;23.10;;;;;;5048389;28;20529;-77
2022/10/30 08:04:19;;;;;;;20.70;9.73;;;13.50;23.00;;;;;;5050353;28;20930;-78
2022/10/30 08:06:45;;;;;;;16.30;8.77;;;13.70;22.80;;;;;;5038346;28;20442;-76
2022/10/30 08:09:11;;;;;;;20.50;9.43;;;13.80;21.10;;;;;;5053999;28;20438;-81
2022/10/30 08:11:41;;;;;;;16.70;9.30;;;13.90;21.40;;;;;;5053492;28;20672;-82
2022/10/30 08:14:11;;;;;;;23.27;9.73;;;14.00;20.90;;;;;;5045946;28;20188;-76
2022/10/30 08:16:41;;;;;;;24.00;9.07;;;14.10;19.70;;;;;;5040894;28;20889;-76
2022/10/30 08:19:17;;;;;;;19.73;9.00;;;14.20;22.00;;;;;;5042830;28;20487;-76
2022/10/30 08:21:47;;;;;;;17.57;9.00;;;14.30;18.30;;;;;;5048894;28;20881;-76
2022/10/30 08:24:29;;;;;;;32.63;9.97;;;14.40;17.70;;;;;;5045089;28;20450;-76
2022/10/30 08:26:55;;;;;;;16.93;9.50;;;14.50;17.70;;;;;;5045184;28;20520;-76
2022/10/30 08:29:23;;;;;;;14.93;8.20;;;14.60;17.70;;;;;;5052469;28;20557;-76
2022/10/30 08:31:54;;;;;;;19.07;9.10;;;14.70;18.00;;;;;;5056592;28;20191;-76
2022/10/30 08:34:25;;;;;;;11.63;8.37;;;14.80;16.40;;;;;;5055014;28;20500;-76
2022/10/30 08:36:51;;;;;;;26.50;10.10;;;14.90;16.60;;;;;;5047434;28;20402;-80
2022/10/30 08:39:17;;;;;;;17.30;9.57;;;15.00;14.60;;;;;;5048288;28;20433;-77
2022/10/30 08:41:59;;;;;;;32.53;9.73;;;15.10;15.60;;;;;;5053013;28;20436;-77
2022/10/30 08:44:35;;;;;;;19.30;9.73;;;15.20;17.10;;;;;;5054201;28;20505;-81
2022/10/30 08:47:06;;;;;;;17.67;9.03;;;15.30;16.70;;;;;;5047519;28;20436;-77
2022/10/30 08:49:47;;;;;;;20.33;11.47;;;15.40;16.80;;;;;;5055779;28;20925;-76
2022/10/30 08:52:47;;;;;;;18.97;9.50;;;15.50;15.60;;;;;;5053740;28;20450;-76
2022/10/30 08:55:13;;;;;;;21.40;10.60;;;15.60;16.80;;;;;;5040926;28;20514;-78
2022/10/30 08:57:41;;;;;;;21.20;11.37;;;15.80;18.50;;;;;;5039315;28;20773;-77
2022/10/30 09:00:12;;;;;;;34.70;12.30;;;15.90;19.70;;;;;;5056315;28;20388;-81
2022/10/30 09:02:54;;;;;;;26.67;13.80;;;16.10;18.90;;;;;;5048942;28;20564;-81
2022/10/30 09:05:20;;;;;;;26.03;14.27;;;16.20;18.80;;;;;;5056102;28;20424;-81
2022/10/30 09:07:46;;;;;;;25.30;12.83;;;16.40;17.00;;;;;;5055620;28;20369;-81
2022/10/30 09:10:12;;;;;;;38.37;14.07;;;16.50;15.90;;;;;;5054000;28;20449;-80
2022/10/30 09:13:11;;;;;;;34.13;14.63;;;16.60;13.70;;;;;;5055385;28;20938;-84
2022/10/30 09:16:00;;;;;;;26.97;13.60;;;16.70;10.20;;;;;;5052594;28;20397;-84
2022/10/30 09:18:30;;;;;;;24.83;13.57;;;16.80;5.40;;;;;;5041015;28;20401;-84
2022/10/30 09:21:06;;;;;;;28.43;13.53;;;16.90;1.20;;;;;;5063208;28;20448;-84
2022/10/30 09:23:53;;;;;;;22.87;12.70;;;17.00;1.00;;;;;;5041775;28;20437;-83
2022/10/30 09:26:29;;;;;;;25.60;12.80;;;17.10;1.00;;;;;;5061653;28;20422;-82
2022/10/30 09:29:00;;;;;;;34.30;12.77;;;17.30;1.00;;;;;;5038619;28;20403;-81
2022/10/30 09:31:42;;;;;;;28.23;13.07;;;17.30;1.00;;;;;;5054522;28;20917;-76
2022/10/30 09:34:07;;;;;;;27.60;13.03;;;17.30;1.00;;;;;;5038889;28;20405;-78
2022/10/30 09:36:34;;;;;;;24.20;12.13;;;17.30;1.00;;;;;;5054916;28;20396;-76
2022/10/30 09:38:59;;;;;;;24.57;11.43;;;17.30;1.00;;;;;;5046667;28;20170;-77
2022/10/30 09:41:51;;;;;;;32.10;11.53;;;17.50;1.00;;;;;;5040976;28;20403;-78
2022/10/30 09:44:36;;;;;;;34.27;11.50;;;17.60;1.00;;;;;;5047933;28;20772;-78
2022/10/30 09:47:11;;;;;;;26.60;11.20;;;17.60;1.00;;;;;;5039090;28;20466;-78
2022/10/30 09:49:42;;;;;;;27.80;10.73;;;17.70;1.00;;;;;;5053005;28;20496;-78
2022/10/30 09:52:29;;;;;;;21.40;11.30;;;17.80;1.00;;;;;;5054458;28;20454;-76
2022/10/30 09:55:01;;;;;;;21.43;10.17;;;17.90;1.00;;;;;;5042443;28;20379;-76
2022/10/30 09:57:54;;;;;;;23.90;10.60;;;18.00;1.00;;;;;;5050582;28;20417;-76
2022/10/30 10:00:38;;;;;;;26.73;10.20;;;18.10;1.00;;;;;;5051059;28;20408;-82
2022/10/30 10:03:35;;;;;;;18.00;9.20;;;18.20;1.00;;;;;;5039994;28;20567;-82
2022/10/30 10:06:38;;;;;;;18.57;9.93;;;18.40;1.00;;;;;;5048893;28;20448;-82
2022/10/30 10:09:32;;;;;;;21.17;9.53;;;18.50;1.00;;;;;;5046964;28;20963;-82
2022/10/30 10:12:12;;;;;;;25.63;9.80;;;18.60;1.00;;;;;;5048405;28;20432;-82
2022/10/30 10:14:56;;;;;;;24.50;9.13;;;18.70;1.00;;;;;;5045153;28;20420;-82
2022/10/30 10:17:43;;;;;;;17.47;8.67;;;18.90;1.00;;;;;;5046032;28;20478;-80
2022/10/30 10:20:35;;;;;;;23.73;9.80;;;18.80;1.00;;;;;;5042556;28;20432;-82
2022/10/30 10:23:34;;;;;;;26.37;9.23;;;19.00;1.00;;;;;;5045769;28;20427;-83
2022/10/30 10:26:50;;;;;;;22.40;8.60;;;19.00;1.00;;;;;;5046108;28;20488;-82
2022/10/30 10:29:46;;;;;;;24.83;9.40;;;19.10;1.00;;;;;;5037886;28;20863;-82
2022/10/30 10:33:05;;;;;;;18.53;8.23;;;19.30;1.00;;;;;;5044152;28;20432;-83
2022/10/30 10:35:50;;;;;;;13.77;6.30;;;19.50;1.00;;;;;;4965238;28;20438;-83
2022/10/30 10:38:29;;;;;;;18.40;7.00;;;19.60;1.00;;;;;;4966053;28;20408;-83
2022/10/30 10:41:19;;;;;;;22.10;7.40;;;19.80;1.00;;;;;;4971528;28;20437;-83
2022/10/30 10:44:00;;;;;;;32.13;6.57;;;19.80;1.00;;;;;;4962521;28;20437;-84
2022/10/30 10:46:59;;;;;;;13.37;7.13;;;19.90;1.00;;;;;;4973273;28;20509;-84
2022/10/30 10:49:46;;;;;;;17.70;6.97;;;20.00;1.00;;;;;;4967239;28;20431;-76
2022/10/30 10:52:17;;;;;;;16.53;6.20;;;20.20;1.00;;;;;;4972546;28;20532;-76
2022/10/30 10:54:58;;;;;;;26.63;6.50;;;20.30;1.00;;;;;;4980271;28;20399;-77
2022/10/30 10:57:33;;;;;;;17.50;6.57;;;20.50;1.00;;;;;;4972506;28;21022;-83
2022/10/30 11:00:22;;;;;;;15.13;6.20;;;20.60;1.00;;;;;;4972611;28;20436;-83
2022/10/30 11:03:16;;;;;;;14.57;5.77;;;20.70;1.00;;;;;;4971851;28;20474;-82
2022/10/30 11:06:14;;;;;;;13.63;5.97;;;20.80;1.00;;;;;;4970123;28;20841;-82
2022/10/30 11:09:29;;;;;;;16.27;6.07;;;21.00;1.00;;;;;;4967599;28;20529;-82
2022/10/30 11:11:55;;;;;;;10.30;5.27;;;21.00;1.00;;;;;;5050379;28;20451;-81
2022/10/30 11:14:59;;;;;;;15.33;5.80;;;21.00;1.00;;;;;;5052057;28;20407;-82
2022/10/30 11:17:38;;;;;;;11.40;5.30;;;21.10;1.00;;;;;;5038088;28;20582;-82
2022/10/30 11:23:38;;;;;;;18.67;4.80;;;21.30;1.00;;;;;;5053061;28;20411;-83
2022/10/30 11:26:25;;;;;;;15.73;5.17;;;21.50;1.00;;;;;;5052413;28;20424;-82
2022/10/30 11:29:22;;;;;;;12.60;5.27;;;21.60;1.00;;;;;;5041531;28;20437;-83
2022/10/30 11:32:02;;;;;;;18.73;5.50;;;21.70;1.00;;;;;;5037005;28;20448;-83
2022/10/30 11:34:35;;;;;;;11.67;4.83;;;21.80;1.00;;;;;;5053276;28;20470;-83
2022/10/30 11:37:30;;;;;;;9.30;5.03;;;21.90;1.00;;;;;;5038523;28;20508;-82
2022/10/30 11:40:48;;;;;;;18.20;5.07;;;22.00;1.00;;;;;;5046451;28;20819;-83
2022/10/30 11:43:19;;;;;;;11.50;4.67;;;22.00;1.00;;;;;;5033244;28;20414;-82
2022/10/30 11:45:54;;;;;;;19.23;5.00;;;21.90;1.00;;;;;;5037977;28;20485;-82
2022/10/30 11:49:11;;;;;;;20.40;5.10;;;22.10;1.00;;;;;;5037637;28;20885;-82
2022/10/30 11:51:54;;;;;;;13.93;4.70;;;22.30;1.00;;;;;;5040112;28;20498;-82
2022/10/30 11:54:25;;;;;;;9.87;4.70;;;22.30;1.00;;;;;;5050195;28;20947;-82
2022/10/30 11:56:53;;;;;;;17.97;5.13;;;22.40;1.00;;;;;;5052581;28;20417;-82
2022/10/30 11:59:50;;;;;;;11.73;4.97;;;22.40;1.00;;;;;;5041679;28;21085;-82
2022/10/30 12:02:55;;;;;;;13.83;4.20;;;22.40;1.00;;;;;;5044963;28;21014;-82
2022/10/30 12:05:34;;;;;;;13.77;4.90;;;22.60;1.00;;;;;;5043069;28;20461;-81
2022/10/30 12:08:29;;;;;;;12.03;4.37;;;22.70;1.00;;;;;;5043949;28;20397;-82
2022/10/30 12:11:12;;;;;;;13.40;5.27;;;22.70;1.00;;;;;;5046287;28;20430;-80
2022/10/30 12:17:06;;;;;;;14.43;4.50;;;22.80;1.00;;;;;;5043346;28;20407;-88
2022/10/30 12:19:36;;;;;;;9.73;4.43;;;22.90;1.00;;;;;;5048469;28;20451;-82
2022/10/30 12:22:24;;;;;;;12.73;4.70;;;22.90;1.00;;;;;;5047110;28;20849;-83
2022/10/30 12:25:19;;;;;;;11.17;4.23;;;23.00;1.00;;;;;;5067366;28;20443;-84
2022/10/30 12:28:16;;;;;;;7.90;4.03;;;23.00;1.00;;;;;;5054079;28;20456;-83
2022/10/30 12:31:01;;;;;;;13.97;4.60;;;23.00;1.00;;;;;;5054952;28;20430;-83
2022/10/30 12:37:04;;;;;;;16.50;4.17;;;22.80;1.00;;;;;;5038135;28;20466;-86
2022/10/30 12:40:19;;;;;;;12.37;4.57;;;22.80;1.00;;;;;;5053887;28;20425;-88
2022/10/30 12:42:56;;;;;;;12.50;4.73;;;22.90;1.00;;;;;;5054560;28;20505;-88
2022/10/30 12:45:42;;;;;;;16.93;4.90;;;22.90;1.00;;;;;;5049354;28;20422;-84
2022/10/30 12:48:29;;;;;;;7.40;4.63;;;22.80;1.00;;;;;;5051918;28;21005;-81
2022/10/30 12:51:38;;;;;;;15.87;5.00;;;22.90;1.00;;;;;;5045899;28;20779;-81
2022/10/30 12:54:41;;;;;;;23.93;4.80;;;22.90;1.00;;;;;;5037895;28;20501;-81
2022/10/30 12:57:41;;;;;;;11.23;5.03;;;23.00;1.00;;;;;;5048251;28;20418;-82
2022/10/30 13:01:01;;;;;;;8.10;4.60;;;23.00;1.00;;;;;;5034536;28;20812;-81
2022/10/30 13:03:54;;;;;;;13.63;4.50;;;22.80;1.00;;;;;;4962383;28;20453;-85
2022/10/30 13:06:45;;;;;;;15.33;5.10;;;22.80;1.00;;;;;;4972887;28;20465;-88
2022/10/30 13:12:37;;;;;;;21.60;4.50;;;22.70;1.00;;;;;;4972214;28;20593;-89
2022/10/30 13:15:55;;;;;;;14.23;5.00;;;22.70;1.00;;;;;;4956074;29;20424;-89
2022/10/30 13:22:26;;;;;;;11.20;4.40;;;22.90;1.00;;;;;;4974409;28;21004;-88
2022/10/30 13:25:13;;;;;;;12.90;3.97;;;23.00;1.00;;;;;;4898011;29;20571;-88
2022/10/30 13:34:59;;;;;;;8.20;4.20;;;23.10;1.00;;;;;;4917173;29;20559;-82
2022/10/30 13:37:45;;;;;;;9.23;3.97;;;23.10;1.00;;;;;;4932820;28;20418;-83
2022/10/30 13:40:53;;;;;;;7.80;3.83;;;23.20;1.00;;;;;;4984250;28;20405;-82
2022/10/30 13:43:47;;;;;;;12.63;4.40;;;23.00;1.00;;;;;;4972271;28;20441;-83
2022/10/30 13:46:26;;;;;;;24.80;4.90;;;23.00;1.00;;;;;;4989351;28;20464;-82
2022/10/30 13:49:16;;;;;;;10.63;4.80;;;22.90;1.00;;;;;;4979697;28;20532;-88
2022/10/30 13:52:20;;;;;;;12.83;4.50;;;22.90;1.00;;;;;;4969690;28;20465;-87
2022/10/30 13:58:23;;;;;;;18.27;4.87;;;22.90;1.00;;;;;;4992521;28;20964;-88
2022/10/30 14:01:21;;;;;;;11.43;5.03;;;22.90;1.00;;;;;;5026565;28;20443;-88
2022/10/30 14:04:14;;;;;;;14.07;4.60;;;22.80;1.00;;;;;;5045564;28;20514;-86
2022/10/30 14:07:18;;;;;;;14.53;5.00;;;22.70;1.00;;;;;;5042052;28;20468;-82
2022/10/30 14:10:20;;;;;;;15.03;5.00;;;22.80;1.00;;;;;;5044479;28;20524;-82
2022/10/30 14:13:13;;;;;;;16.10;5.13;;;22.70;1.00;;;;;;5041942;28;20454;-82
2022/10/30 14:15:45;;;;;;;13.97;4.77;;;22.60;1.00;;;;;;5044038;28;20949;-83
2022/10/30 14:18:45;;;;;;;14.83;5.30;;;22.60;1.00;;;;;;5049184;28;20422;-83
2022/10/30 14:21:41;;;;;;;10.00;5.20;;;22.40;1.00;;;;;;5045849;28;20422;-83
2022/10/30 14:24:18;;;;;;;7.43;4.40;;;22.30;1.00;;;;;;5049038;28;20420;-83
2022/10/30 14:26:54;;;;;;;13.83;5.20;;;22.30;1.00;;;;;;5047698;28;20434;-82
2022/10/30 14:29:32;;;;;;;12.80;4.50;;;22.20;1.00;;;;;;5045109;28;20486;-83
2022/10/30 14:32:01;;;;;;;15.00;5.13;;;22.10;1.00;;;;;;5047280;28;20529;-83
2022/10/30 14:34:53;;;;;;;18.23;5.87;;;22.10;1.00;;;;;;5037161;28;20468;-83
2022/10/30 14:37:54;;;;;;;12.47;5.27;;;22.00;1.00;;;;;;5044394;28;20428;-83
2022/10/30 14:41:05;;;;;;;14.97;5.20;;;22.00;1.00;;;;;;5044829;28;20452;-83